• Join FlightAware (Why Join?)
  • Login
  • US Flag 
08:01PM EDT


 

Airport Tracker/Info


-or-


 

Live Flight TrackerFlight Track Log ✈ UAL335 ✈ 01-May-2013 ✈ KDCA - KORD

Flight Track Log - Related Links

Times and Time Zones

All times are in EDT time to prevent confusion due to time zone crossing. See the UAL335 flight status page for this flight to view local times or setup timezone preferences in your user account.

Time Position Orientation Groundspeed Altitude Reporting Facility
EDT Latitude Longitude Course Direction KTS MPH feet Rate Location/Type
07:06AM 38.8667 -77.0500 270° West 149 171 1,300  Level Potomac TRACON
07:07AM 38.9167 -77.1000 322° Northwest 223 257 3,600 2,880 Climbing Potomac TRACON
07:07AM 38.9667 -77.1500 322° Northwest 263 303 6,800 3,300 Climbing Potomac TRACON
07:08AM 38.9147 -77.3814 322° Northwest  Level FlightAware Approximate
07:09AM 38.9333 -77.4996 270° West  Level FlightAware Approximate
07:10AM 38.9333 -77.6253 270° West  Level FlightAware Approximate
07:10AM 38.9644 -77.3911 269° West 289 333 14,000  Level Washington Center
07:11AM 38.9333 -77.7510 270° West  Level FlightAware Approximate
07:11AM 38.9542 -77.5189 264° West 355 409 16,800  Level Washington Center
07:12AM 38.9436 -77.6628 265° West 376 433 19,300 2,460 Climbing Washington Center
07:13AM 38.9456 -77.7828 271° West 381 438 21,800 2,580 Climbing Washington Center
07:14AM 38.9511 -77.9378 273° West 390 449 24,600 2,340 Climbing Washington Center
07:15AM 38.9567 -78.0769 273° West 390 449 26,600 1,200 Climbing Washington Center
07:16AM 38.9597 -78.2239 272° West 402 463 27,000 360 Climbing Washington Center
07:17AM 38.9667 -78.3708 274° West 409 471 27,400 960 Climbing Washington Center
07:18AM 38.9717 -78.5206 273° West 414 476 28,900 1,620 Climbing Washington Center
07:19AM 38.9758 -78.6811 272° West 430 495 30,700 1,620 Climbing Washington Center
07:20AM 38.9803 -78.8361 272° West 446 513 32,200 1,740 Climbing Washington Center
07:21AM 38.9842 -78.9964 272° West 446 513 34,200 2,220 Climbing Washington Center
07:22AM 38.9878 -79.1517 272° West 445 512 36,700 1,800 Climbing Washington Center
07:23AM 38.9917 -79.2986 272° West 429 494 37,900 660 Climbing Washington Center
07:24AM 38.9956 -79.4458 272° West 424 488 38,000  Climbing Washington Center
07:25AM 38.9992 -79.5875 272° West 432 497 38,000  Level Washington Center
07:26AM 39.0003 -79.7400 271° West 438 504 38,000  Level Washington Center
07:28AM 39.0042 -80.0272 271° West 426 490 38,000  Level Indianapolis Center
07:29AM 39.0058 -80.1825 271° West 423 487 38,000  Level Indianapolis Center
07:30AM 39.0089 -80.3353 272° West 428 493 38,000  Level Indianapolis Center
07:31AM 39.0111 -80.4853 271° West 424 488 38,000  Level Indianapolis Center
07:32AM 39.0131 -80.6372 271° West 426 490 38,000  Level Indianapolis Center
07:33AM 39.0197 -80.7886 273° West 426 490 38,000  Level Indianapolis Center
07:34AM 39.0614 -80.9294 291° West 423 487 38,000  Level Indianapolis Center
07:35AM 39.1275 -81.0864 299° West 419 482 38,000  Level Indianapolis Center
07:36AM 39.1825 -81.2200 298° West 425 489 38,000  Level Indianapolis Center
07:37AM 39.2372 -81.3533 298° West 425 489 38,000  Level Indianapolis Center
07:38AM 39.2925 -81.4883 298° West 428 493 38,000  Level Indianapolis Center
07:39AM 39.3472 -81.6239 298° West 429 494 38,000  Level Indianapolis Center
07:40AM 39.4008 -81.7586 297° West 426 490 38,000  Level Indianapolis Center
07:41AM 39.4558 -81.8942 298° West 426 490 38,000  Level Indianapolis Center
07:42AM 39.5106 -82.0306 298° West 427 491 38,000  Level Indianapolis Center
07:43AM 39.5742 -82.1917 297° West 424 488 38,000  Level Indianapolis Center
07:44AM 39.6283 -82.3286 297° West 425 489 38,000  Level Indianapolis Center
07:45AM 39.6828 -82.4672 297° West 426 490 38,000  Level Indianapolis Center
07:46AM 39.7375 -82.6042 297° West 426 490 38,000 -60 Level Indianapolis Center
07:47AM 39.7908 -82.7419 297° West 425 489 37,900 -60 Descending Indianapolis Center
07:48AM 39.8453 -82.8797 297° West 424 488 37,900  Level Indianapolis Center
07:49AM 39.8983 -83.0169 297° West 424 488 37,900  Level Indianapolis Center
07:50AM 39.9517 -83.1547 297° West 425 489 38,000  Climbing Indianapolis Center
07:51AM 40.0136 -83.3150 297° West 426 490 38,000  Level Indianapolis Center
07:52AM 40.0664 -83.4533 297° West 430 495 38,000 -120 Level Indianapolis Center
07:53AM 40.1192 -83.5925 296° West 429 494 37,800 -600 Descending Indianapolis Center
07:54AM 40.1719 -83.7317 296° West 426 490 36,800 -900 Descending Indianapolis Center
07:55AM 40.2256 -83.8731 296° West 431 496 36,000 -660 Descending Indianapolis Center
07:56AM 40.2775 -84.0128 296° West 425 489 35,500 -780 Descending Indianapolis Center
07:57AM 40.3464 -84.1381 306° West 421 484 34,500 -840 Descending Indianapolis Center
07:58AM 40.4022 -84.2731 299° West 425 489 33,900 -300 Descending Indianapolis Center
07:59AM 40.4469 -84.4428 289° West 421 484 34,000  Climbing Indianapolis Center
08:00AM 40.4856 -84.5872 289° West 418 481 34,000  Level Indianapolis Center
08:01AM 40.5581 -84.7044 309° West 423 487 34,000  Level Indianapolis Center
08:02AM 40.6464 -84.8050 319° Northwest 418 481 34,000  Level Indianapolis Center
08:03AM 40.6589 -84.8206 317° Northwest 418 481 34,000  Level Chicago Center
08:04AM 40.7467 -84.9192 320° Northwest 417 480 34,000  Level Chicago Center
08:05AM 40.8519 -85.0403 319° Northwest 417 480 34,000 -180 Level Chicago Center
08:06AM 40.9383 -85.1406 319° Northwest 415 478 33,700 -660 Descending Chicago Center
08:07AM 40.9931 -85.2792 298° West 420 483 32,700 -1,020 Descending Chicago Center
08:08AM 41.0461 -85.4189 297° West 423 487 31,700 -1,140 Descending Chicago Center
08:09AM 41.1006 -85.5572 298° West 421 484 30,400 -1,500 Descending Chicago Center
08:10AM 41.1469 -85.6989 294° West 418 481 28,700 -1,740 Descending Chicago Center
08:11AM 41.2025 -85.8369 298° West 419 482 26,900 -1,800 Descending Chicago Center
08:12AM 41.2572 -85.9731 298° West 416 479 25,000 -960 Descending Chicago Center
08:13AM 41.3100 -86.1439 292° West 413 475 25,000  Level Chicago Center
08:14AM 41.3456 -86.2872 288° West 410 472 25,000  Level Chicago Center
08:15AM 41.3814 -86.4317 288° West 410 472 25,000 -1,020 Level Chicago Center
08:16AM 41.4175 -86.5739 289° West 408 470 23,000 -2,040 Descending Chicago Center
08:17AM 41.4539 -86.7231 288° West 392 451 20,900 -1,980 Descending Chicago Center
08:18AM 41.4864 -86.8528 289° West 377 434 19,000 -1,920 Descending Chicago Center
08:19AM 41.5178 -86.9811 288° West 368 423 17,000 -2,340 Descending Chicago Center
08:20AM 41.5481 -87.1064 288° West 359 413 14,200 -2,940 Descending Chicago Center
08:21AM 41.5667 -87.2000 285° West 380 437 12,300 -2,520 Descending Chicago TRACON
08:22AM 41.6333 -87.3167 307° West 380 437 10,300 -1,620 Descending Chicago TRACON
08:22AM 41.6592 -87.3689 304° West 376 433 10,000 -240 Descending Chicago Center
08:23AM 41.7231 -87.4733 309° West 368 423 10,000 -360 Level Chicago Center
08:24AM 41.7789 -87.5656 309° West 324 373 9,300 -1,080 Descending Chicago Center
08:25AM 41.8322 -87.6506 310° West 302 348 7,800 -1,500 Descending Chicago Center
08:26AM 41.8833 -87.6833 334° Northwest 302 348 7,000 -600 Descending Chicago TRACON
08:27AM 41.9500 -87.6833 360° North 294 338 7,000 -60 Level Chicago TRACON
08:28AM 42.0167 -87.6833 360° North 246 283 6,900  Descending Chicago TRACON
08:29AM 42.0833 -87.6500 20° North 208 239 7,000 -480 Climbing Chicago TRACON
08:30AM 42.1333 -87.6333 14° North 210 242 6,000 -960 Descending Chicago TRACON
08:31AM 42.1486 -87.6725 298° West 203 234 5,400 -900 Descending Chicago Center
08:32AM 42.1467 -87.7294 267° West 180 207 4,500 -840 Descending Chicago Center
08:33AM 42.1086 -87.7742 221° Southwest 157 181 3,700 -900 Descending Chicago Center
08:34AM 42.0667 -87.8167 217° Southwest 134 154 2,500 -840 Descending Chicago TRACON
08:35AM 42.0500 -87.8333 217° Southwest 116 133 1,900 -600 Descending Chicago TRACON